Aviation Digital Data Service (ADDS)

Output produced by TAFs form (0005 UTC 19 July 2018)
found at http://www.aviationweather.gov/adds/tafs/
 
METAR text: ROMY 182300Z 05010KT 9999 SCT010 BKN/// 28/26 Q1006
Conditions at: ROMY (MIYAKOJIMA ISLAN, JP) observed 2300 UTC 18 July 2018
Temperature: 28.0°C (82°F)
Dewpoint: 26.0°C (79°F) [RH = 89%]
Pressure (altimeter): 29.70 inches Hg (1006.0 mb)
Winds: from the NE (50 degrees) at 12 MPH (10 knots; 5.2 m/s)
Visibility: 6 or more miles (10+ km)
Ceiling: at least 12,000 feet AGL
Clouds: scattered clouds at 1000 feet AGL
Weather: no significant weather observed at this time